Time;durP1;ratioP1;P1;durP2;ratioP2;P2;SDS_P1;SDS_P2;PMS_P1;PMS_P2;Temp;Humidity;BMP_temperature;BMP_pressure;BME280_temperature;BME280_humidity;BME280_pressure;Samples;Min_cycle;Max_cycle;Signal;HPM_P1;HPM_P2
2022/08/15 00:01:41;;;;;;;12.85;7.58;;;;;;;17.41;82.84;94892.99;1826300;78;20978;-69
2022/08/15 00:04:09;;;;;;;9.85;6.78;;;;;;;17.43;82.55;94891.55;1825834;78;21054;-69
2022/08/15 00:06:41;;;;;;;11.75;6.87;;;;;;;17.40;82.44;94883.73;1826312;78;21022;-69
2022/08/15 00:09:13;;;;;;;10.00;6.85;;;;;;;17.38;83.07;94888.28;1825831;78;21049;-69
2022/08/15 00:11:44;;;;;;;8.63;7.07;;;;;;;17.43;83.36;94887.07;1826530;78;21429;-69
2022/08/15 00:14:16;;;;;;;11.57;7.33;;;;;;;17.45;83.09;94892.33;1826063;78;21022;-69
2022/08/15 00:16:44;;;;;;;11.63;7.37;;;;;;;17.43;83.06;94899.55;1826681;78;20975;-69
2022/08/15 00:19:22;;;;;;;8.43;6.40;;;;;;;17.38;83.37;94909.14;1825728;78;21005;-69
2022/08/15 00:21:54;;;;;;;10.78;6.67;;;;;;;17.39;83.23;94909.55;1827296;78;21068;-69
2022/08/15 00:24:25;;;;;;;8.40;6.35;;;;;;;17.32;82.33;94912.16;1832037;78;21054;-69
2022/08/15 00:26:53;;;;;;;9.15;7.08;;;;;;;17.21;83.35;94912.77;1831898;78;21013;-69
2022/08/15 00:29:23;;;;;;;10.18;7.47;;;;;;;17.19;83.49;94913.33;1831748;78;21539;-69
2022/08/15 00:31:53;;;;;;;10.90;7.17;;;;;;;17.21;83.56;94907.88;1831903;78;21017;-69
2022/08/15 00:34:20;;;;;;;10.50;7.30;;;;;;;17.19;83.26;94906.66;1831577;78;21021;-69
2022/08/15 00:36:48;;;;;;;11.18;7.00;;;;;;;17.13;82.98;94906.12;1831751;78;21066;-69
2022/08/15 00:39:19;;;;;;;9.83;6.72;;;;;;;17.15;83.49;94901.58;1832017;78;20998;-69
2022/08/15 00:41:48;;;;;;;10.25;6.67;;;;;;;17.16;82.98;94906.84;1831982;78;20990;-69
2022/08/15 00:44:29;;;;;;;9.80;7.45;;;;;;;17.17;82.95;94904.55;1831714;78;21006;-69
2022/08/15 00:47:01;;;;;;;9.55;6.15;;;;;;;17.17;82.78;94912.54;1831946;78;21420;-69
2022/08/15 00:49:31;;;;;;;9.65;6.60;;;;;;;17.15;82.97;94913.09;1831214;78;21006;-69
2022/08/15 00:52:03;;;;;;;8.53;6.72;;;;;;;17.05;82.81;94912.73;1831972;78;20990;-69
2022/08/15 00:55:00;;;;;;;10.43;6.55;;;;;;;16.98;82.47;94922.48;1832259;78;21069;-69
2022/08/15 00:57:34;;;;;;;12.15;7.65;;;;;;;16.95;83.30;94915.99;1831970;78;20999;-69
2022/08/15 01:00:09;;;;;;;7.92;6.42;;;;;;;17.00;83.14;94923.27;1831995;78;21006;-69
2022/08/15 01:02:36;;;;;;;8.03;6.50;;;;;;;17.02;82.88;94914.72;1831953;78;20993;-69
2022/08/15 01:05:11;;;;;;;9.60;7.50;;;;;;;16.95;83.05;94912.84;1831941;78;20990;-69
2022/08/15 01:07:38;;;;;;;9.50;7.22;;;;;;;16.94;83.42;94914.28;1831946;78;21025;-69
2022/08/15 01:10:08;;;;;;;15.48;7.03;;;;;;;16.95;83.47;94912.84;1831702;78;21068;-69
2022/08/15 01:12:37;;;;;;;11.18;6.53;;;;;;;16.90;82.83;94910.05;1832014;78;21428;-69
2022/08/15 01:15:14;;;;;;;9.73;7.00;;;;;;;16.81;82.77;94906.95;1831966;78;21022;-69
2022/08/15 01:17:41;;;;;;;10.53;7.20;;;;;;;16.74;82.77;94906.00;1802265;78;20985;-69
2022/08/15 01:20:13;;;;;;;10.88;7.42;;;;;;;16.72;83.45;94904.73;1831614;78;21069;-69
2022/08/15 01:23:28;;;;;;;11.40;6.58;;;;;;;16.77;83.66;94897.84;1831939;78;21520;-69
2022/08/15 01:26:00;;;;;;;9.13;6.83;;;;;;;16.80;83.36;94895.89;1831835;78;20974;-69
2022/08/15 01:28:41;;;;;;;13.20;7.92;;;;;;;16.78;83.18;94892.92;1830972;78;21014;-69
2022/08/15 01:31:15;;;;;;;9.80;7.00;;;;;;;16.71;82.73;94897.70;1832117;78;21025;-69
2022/08/15 01:33:50;;;;;;;11.08;7.35;;;;;;;16.66;83.00;94896.61;1800250;78;21006;-69
2022/08/15 01:36:21;;;;;;;7.83;6.97;;;;;;;16.63;83.45;94895.90;1832701;78;20978;-69
2022/08/15 01:39:05;;;;;;;10.35;6.35;;;;;;;16.61;83.07;94889.34;1831903;78;20971;-69
2022/08/15 01:41:37;;;;;;;11.22;7.60;;;;;;;16.62;82.85;94894.19;1831752;78;20986;-69
2022/08/15 01:44:25;;;;;;;7.15;6.40;;;;;;;16.49;82.96;94894.46;1775449;78;20990;-69
2022/08/15 01:47:09;;;;;;;10.68;6.72;;;;;;;16.38;82.81;94894.55;1801159;78;20998;-69
2022/08/15 01:49:59;;;;;;;11.10;7.10;;;;;;;16.27;82.89;94899.56;1831802;78;21033;-69
2022/08/15 01:52:35;;;;;;;8.28;6.67;;;;;;;16.24;83.43;94891.75;1831748;78;20997;-69
2022/08/15 01:55:05;;;;;;;10.18;6.62;;;;;;;16.12;83.49;94884.39;1830945;78;21021;-69
2022/08/15 01:57:34;;;;;;;9.90;6.10;;;;;;;16.12;83.49;94884.39;1832171;78;20938;-69
2022/08/15 02:00:05;;;;;;;9.70;6.30;;;;;;;16.12;83.15;94891.05;1831955;78;21017;-69
2022/08/15 02:02:35;;;;;;;9.23;6.10;;;;;;;16.06;82.86;94893.56;1831005;78;20998;-69
2022/08/15 02:05:04;;;;;;;10.50;6.45;;;;;;;16.05;83.17;94887.86;1832005;78;21002;-69
2022/08/15 02:07:31;;;;;;;9.15;7.12;;;;;;;15.99;83.76;94894.80;1831882;78;21428;-69
2022/08/15 02:09:58;;;;;;;9.95;5.87;;;;;;;15.97;84.11;94896.20;1831975;78;21018;-69
2022/08/15 02:12:31;;;;;;;11.38;6.33;;;;;;;15.96;83.53;94894.49;1831572;78;21097;-69
2022/08/15 02:15:00;;;;;;;8.58;6.35;;;;;;;15.94;84.18;94896.84;1800866;78;20998;-69
2022/08/15 02:17:27;;;;;;;10.32;6.92;;;;;;;15.93;84.52;94893.33;1832055;78;20966;-69
2022/08/15 02:19:56;;;;;;;11.75;7.03;;;;;;;15.88;84.04;94899.34;1831865;78;21003;-69
2022/08/15 02:22:26;;;;;;;9.95;7.05;;;;;;;15.89;84.06;94901.06;1830353;78;21045;-69
2022/08/15 02:24:59;;;;;;;14.00;6.47;;;;;;;15.90;83.87;94912.11;1826358;78;20962;-69
2022/08/15 02:27:31;;;;;;;9.80;6.53;;;;;;;15.90;83.87;94912.11;1826384;78;21009;-69
2022/08/15 02:30:01;;;;;;;8.03;6.20;;;;;;;15.89;83.23;94916.16;1826036;78;21014;-69
2022/08/15 02:32:28;;;;;;;8.85;5.97;;;;;;;15.89;83.11;94906.38;1824922;78;21014;-69
2022/08/15 02:34:54;;;;;;;8.83;6.80;;;;;;;15.75;83.39;94895.59;1826025;78;21029;-69
2022/08/15 02:37:23;;;;;;;9.30;5.97;;;;;;;15.75;83.39;94895.59;1826243;78;21046;-69
2022/08/15 02:39:52;;;;;;;10.03;6.42;;;;;;;15.76;83.41;94895.97;1826305;78;21018;-69
2022/08/15 02:42:19;;;;;;;10.85;6.28;;;;;;;15.69;83.29;94898.06;1826106;78;21022;-69
2022/08/15 02:44:50;;;;;;;8.35;5.90;;;;;;;15.70;84.02;94900.25;1826390;78;20991;-69
2022/08/15 02:47:15;;;;;;;9.95;6.72;;;;;;;15.69;83.94;94896.73;1826079;78;21422;-69
2022/08/15 02:49:43;;;;;;;11.48;6.70;;;;;;;15.70;83.77;94905.12;1825822;78;21030;-69
2022/08/15 02:52:12;;;;;;;9.33;6.42;;;;;;;15.65;83.34;94912.44;1826223;78;21006;-69
2022/08/15 02:54:40;;;;;;;10.08;6.45;;;;;;;15.63;83.81;94916.11;1826288;78;20994;-69
2022/08/15 02:57:09;;;;;;;8.13;5.70;;;;;;;15.52;83.38;94907.30;1826201;78;21011;-69
2022/08/15 02:59:37;;;;;;;9.20;6.10;;;;;;;15.52;83.38;94907.30;1792905;78;21468;-69
2022/08/15 03:02:07;;;;;;;10.60;6.60;;;;;;;15.52;83.41;94910.84;1826217;78;21005;-69
2022/08/15 03:04:35;;;;;;;11.18;6.10;;;;;;;15.54;83.80;94893.00;1826105;78;21034;-69
2022/08/15 03:07:04;;;;;;;8.43;5.67;;;;;;;15.54;83.80;94893.00;1826196;78;21495;-69
2022/08/15 03:09:31;;;;;;;8.68;6.33;;;;;;;15.61;83.16;94893.56;1826136;78;21022;-69
2022/08/15 03:12:00;;;;;;;9.43;6.87;;;;;;;15.52;82.76;94894.02;1825816;78;21042;-69
2022/08/15 03:14:35;;;;;;;12.43;8.43;;;;;;;15.52;82.76;94894.02;1826280;78;21006;-69
2022/08/15 03:17:02;;;;;;;15.93;9.58;;;;;;;15.40;83.20;94893.31;1826202;78;21528;-69
2022/08/15 03:19:29;;;;;;;12.93;7.87;;;;;;;15.39;83.75;94896.41;1825849;78;21037;-69
2022/08/15 03:21:56;;;;;;;10.55;7.35;;;;;;;15.42;83.43;94891.41;1826253;78;21003;-69
2022/08/15 03:24:24;;;;;;;11.12;7.22;;;;;;;15.38;83.89;94887.20;1825973;78;21033;-69
2022/08/15 03:26:51;;;;;;;10.15;7.65;;;;;;;15.43;83.93;94884.70;1826251;78;21009;-69
2022/08/15 03:29:20;;;;;;;11.63;7.25;;;;;;;15.43;83.86;94884.70;1826339;78;20994;-69
2022/08/15 03:31:51;;;;;;;11.85;7.65;;;;;;;15.45;83.78;94889.95;1826219;78;21021;-69
2022/08/15 03:34:23;;;;;;;7.67;5.67;;;;;;;15.45;83.33;94885.49;1826069;78;21005;-69
2022/08/15 03:36:50;;;;;;;9.93;5.75;;;;;;;15.38;82.80;94885.39;1826372;78;20986;-69
2022/08/15 03:39:17;;;;;;;8.13;6.08;;;;;;;15.26;82.76;94882.85;1825765;78;21081;-69
2022/08/15 03:41:46;;;;;;;13.05;6.85;;;;;;;15.21;83.02;94884.02;1826290;78;20975;-69
2022/08/15 03:44:13;;;;;;;11.18;5.72;;;;;;;15.10;83.61;94884.06;1826281;78;21002;-69
2022/08/15 03:46:40;;;;;;;9.45;7.20;;;;;;;15.07;84.29;94882.89;1826078;78;21527;-69
2022/08/15 03:49:10;;;;;;;11.33;6.03;;;;;;;15.05;83.64;94879.91;1826317;78;21006;-69
2022/08/15 03:51:38;;;;;;;11.20;6.37;;;;;;;15.04;84.83;94875.04;1793183;78;20990;-69
2022/08/15 03:54:07;;;;;;;11.80;7.78;;;;;;;15.04;84.52;94883.48;1825730;78;21026;-69
2022/08/15 03:56:35;;;;;;;8.25;6.20;;;;;;;15.02;85.17;94870.73;1826231;78;21476;-69
2022/08/15 03:59:03;;;;;;;13.53;6.12;;;;;;;15.10;84.74;94877.89;1825753;78;21567;-69
2022/08/15 04:01:34;;;;;;;11.28;6.72;;;;;;;15.18;84.83;94878.86;1826149;78;20970;-69
2022/08/15 04:04:04;;;;;;;11.88;5.78;;;;;;;15.29;84.66;94878.71;1826036;78;21578;-69
2022/08/15 04:06:32;;;;;;;10.35;6.75;;;;;;;15.29;84.30;94887.16;1824333;78;21018;-69
2022/08/15 04:09:01;;;;;;;10.05;7.62;;;;;;;15.34;84.69;94891.78;1826402;78;21001;-69
2022/08/15 04:11:30;;;;;;;12.05;8.63;;;;;;;15.38;84.10;94893.38;1826436;78;21017;-69
2022/08/15 04:13:58;;;;;;;8.10;5.75;;;;;;;15.27;83.41;94883.27;1826044;78;21006;-69
2022/08/15 04:16:25;;;;;;;8.03;6.20;;;;;;;15.27;83.41;94883.27;1826157;78;21443;-69
2022/08/15 04:18:53;;;;;;;10.60;7.37;;;;;;;15.28;83.81;94895.61;1825970;78;20998;-69
2022/08/15 04:21:20;;;;;;;10.30;7.83;;;;;;;15.32;84.19;94893.65;1825704;78;21078;-69
2022/08/15 04:23:48;;;;;;;11.78;6.85;;;;;;;15.32;84.23;94889.22;1825972;78;20970;-69
2022/08/15 04:26:17;;;;;;;10.65;6.72;;;;;;;15.33;83.58;94884.76;1826409;78;20998;-69
2022/08/15 04:28:44;;;;;;;9.95;6.85;;;;;;;15.29;83.66;94880.04;1826036;78;21021;-69
2022/08/15 04:31:15;;;;;;;9.60;6.80;;;;;;;15.27;84.39;94881.05;1826167;78;21018;-69
2022/08/15 04:33:44;;;;;;;14.20;7.35;;;;;;;15.28;84.28;94875.67;1826139;78;21050;-69
2022/08/15 04:36:16;;;;;;;11.93;7.95;;;;;;;15.27;84.77;94869.98;1825698;78;21006;-69
2022/08/15 04:38:44;;;;;;;16.62;7.95;;;;;;;15.36;84.86;94876.16;1826338;78;20978;-69
2022/08/15 04:41:15;;;;;;;13.65;9.45;;;;;;;15.46;84.82;94879.23;1826119;78;21014;-69
2022/08/15 04:43:44;;;;;;;14.70;8.78;;;;;;;15.52;84.51;94880.27;1826228;78;21432;-69
2022/08/15 04:46:13;;;;;;;15.23;8.73;;;;;;;15.57;84.40;94875.59;1823857;78;21476;-69
2022/08/15 04:48:41;;;;;;;12.55;7.97;;;;;;;15.68;84.68;94865.73;1825915;78;21505;-69
2022/08/15 04:51:08;;;;;;;12.23;7.97;;;;;;;15.82;84.28;94880.16;1825942;78;21045;-69
2022/08/15 04:53:39;;;;;;;10.18;8.25;;;;;;;15.82;84.28;94880.16;1792990;78;20946;-69
2022/08/15 04:56:07;;;;;;;11.15;8.88;;;;;;;15.90;84.43;94877.97;1825799;78;21469;-69
2022/08/15 04:58:36;;;;;;;11.95;8.93;;;;;;;16.04;84.34;94887.45;1826191;78;20997;-69
2022/08/15 05:01:09;;;;;;;13.90;8.98;;;;;;;16.15;84.30;94882.45;1826078;78;20963;-69
2022/08/15 05:03:40;;;;;;;14.78;9.20;;;;;;;16.32;84.27;94886.02;1825225;78;21495;-69
2022/08/15 05:06:10;;;;;;;13.32;9.98;;;;;;;16.41;83.77;94882.88;1825663;78;21150;-69
2022/08/15 05:08:39;;;;;;;12.90;9.70;;;;;;;16.52;83.90;94884.49;1826035;78;20974;-69
2022/08/15 05:11:17;;;;;;;14.68;10.08;;;;;;;16.66;83.92;94886.44;1824091;78;21026;-69
2022/08/15 05:13:46;;;;;;;14.98;8.40;;;;;;;16.74;83.88;94868.23;1825652;78;21006;-69
2022/08/15 05:16:15;;;;;;;12.37;8.50;;;;;;;16.80;83.93;94865.73;1825247;78;21531;-69
2022/08/15 05:18:43;;;;;;;12.47;9.03;;;;;;;16.92;84.06;94867.72;1826392;78;21003;-69
2022/08/15 05:21:11;;;;;;;10.85;8.23;;;;;;;17.06;84.14;94859.83;1825707;78;21000;-69
2022/08/15 05:23:41;;;;;;;10.20;8.33;;;;;;;17.23;84.20;94862.02;1828175;78;21045;-69
2022/08/15 05:26:12;;;;;;;10.43;8.63;;;;;;;17.35;83.97;94860.47;1800928;78;21010;-69
2022/08/15 05:28:41;;;;;;;12.28;8.00;;;;;;;17.51;84.08;94871.97;1831973;78;21523;-69
2022/08/15 05:31:11;;;;;;;9.43;8.20;;;;;;;17.69;84.01;94868.27;1831508;78;21018;-69
2022/08/15 05:33:39;;;;;;;11.60;8.70;;;;;;;17.85;83.36;94866.91;1800907;78;21033;-69
2022/08/15 05:36:08;;;;;;;8.65;7.15;;;;;;;17.99;83.03;94874.57;1831433;78;21550;-69
2022/08/15 05:38:55;;;;;;;8.90;7.30;;;;;;;18.08;81.59;94870.03;1831819;78;21475;-69
2022/08/15 05:41:52;;;;;;;9.30;7.58;;;;;;;18.04;80.06;94866.70;1831595;78;21082;-69
2022/08/15 05:44:31;;;;;;;11.70;8.15;;;;;;;18.01;79.93;94870.86;1831885;78;20995;-69
2022/08/15 05:47:09;;;;;;;10.88;7.25;;;;;;;18.26;80.81;94873.41;1831591;78;21005;-69
2022/08/15 05:49:50;;;;;;;9.28;6.92;;;;;;;18.42;81.14;94874.22;1824405;78;21006;-69
2022/08/15 05:52:48;;;;;;;12.45;7.58;;;;;;;18.44;80.01;94866.94;1831903;78;20970;-69
2022/08/15 05:55:33;;;;;;;9.28;7.75;;;;;;;18.55;80.49;94867.64;1831932;78;21041;-69
2022/08/15 05:58:49;;;;;;;11.85;8.08;;;;;;;18.76;81.20;94869.00;1831981;78;20974;-69
2022/08/15 06:01:34;;;;;;;11.15;8.23;;;;;;;19.00;81.35;94870.63;1831844;78;21084;-69
2022/08/15 06:04:11;;;;;;;9.60;7.58;;;;;;;19.25;80.40;94873.05;1829720;78;21045;-69
2022/08/15 06:06:42;;;;;;;9.28;8.23;;;;;;;19.39;80.01;94872.18;1831873;78;20994;-69
2022/08/15 06:09:42;;;;;;;10.65;8.30;;;;;;;19.50;79.38;94874.15;1831620;78;21090;-69
2022/08/15 06:12:14;;;;;;;11.45;8.23;;;;;;;19.66;78.80;94861.50;1832090;78;21468;-69
2022/08/15 06:14:45;;;;;;;9.90;7.75;;;;;;;19.82;78.32;94866.23;1831473;78;21538;-69
2022/08/15 06:17:18;;;;;;;9.65;7.62;;;;;;;19.95;77.76;94867.60;1832100;78;21046;-69
2022/08/15 06:19:49;;;;;;;8.95;7.35;;;;;;;20.12;76.99;94872.32;1831844;78;21056;-69
2022/08/15 06:22:43;;;;;;;9.43;7.22;;;;;;;20.26;75.74;94873.56;1832177;78;21007;-69
2022/08/15 06:25:24;;;;;;;10.00;8.05;;;;;;;20.29;75.29;94866.68;1822181;78;21014;-69
2022/08/15 06:28:21;;;;;;;10.23;7.97;;;;;;;20.38;75.09;94865.17;1821242;79;20998;-69
2022/08/15 06:31:08;;;;;;;11.30;8.98;;;;;;;20.51;75.81;94868.71;1817978;79;20987;-69
2022/08/15 06:33:56;;;;;;;11.57;8.28;;;;;;;20.72;75.94;94864.58;1821268;79;21460;-69
2022/08/15 06:36:34;;;;;;;10.63;8.90;;;;;;;20.90;75.66;94858.41;1819992;79;21078;-69
2022/08/15 06:39:27;;;;;;;10.35;8.55;;;;;;;21.11;75.88;94863.20;1821127;79;21005;-69
2022/08/15 06:42:18;;;;;;;11.48;8.70;;;;;;;21.27;75.47;94868.31;1821364;79;21006;-69
2022/08/15 06:44:50;;;;;;;13.25;8.93;;;;;;;21.41;75.04;94868.70;1821469;79;21432;-69
2022/08/15 06:47:21;;;;;;;10.80;8.20;;;;;;;21.54;74.32;94866.82;1792875;79;21006;-69
2022/08/15 06:49:53;;;;;;;9.40;8.00;;;;;;;21.62;73.81;94863.11;1821047;79;21013;-69
2022/08/15 06:52:21;;;;;;;8.68;7.78;;;;;;;21.77;73.57;94860.62;1820528;79;21367;-69
2022/08/15 06:54:48;;;;;;;9.65;7.30;;;;;;;21.93;72.21;94853.62;1792737;79;20970;-69
2022/08/15 06:57:45;;;;;;;10.08;8.25;;;;;;;22.00;69.78;94856.22;1821129;79;21011;-69
2022/08/15 07:00:20;;;;;;;9.00;7.50;;;;;;;22.12;70.98;94850.38;1821433;79;21026;-69
2022/08/15 07:03:12;;;;;;;9.58;7.85;;;;;;;22.29;69.78;94855.00;1820701;79;21022;-69
2022/08/15 07:05:49;;;;;;;8.15;7.22;;;;;;;22.36;68.84;94854.41;1821474;79;21018;-69
2022/08/15 07:08:28;;;;;;;10.45;7.53;;;;;;;22.53;68.12;94857.61;1821326;79;21045;-69
2022/08/15 07:11:18;;;;;;;8.28;7.35;;;;;;;22.65;67.75;94857.55;1821296;79;21069;-69
2022/08/15 07:14:19;;;;;;;8.63;7.60;;;;;;;22.83;67.63;94853.90;1821286;79;21018;-69
2022/08/15 07:17:01;;;;;;;9.00;7.28;;;;;;;22.99;66.81;94850.88;1821254;79;21916;-69
2022/08/15 07:19:28;;;;;;;9.35;7.58;;;;;;;23.13;65.96;94848.91;1821423;79;20963;-70
2022/08/15 07:22:00;;;;;;;7.28;6.55;;;;;;;23.24;65.29;94855.65;1820517;79;20990;-69
2022/08/15 07:24:31;;;;;;;8.55;7.10;;;;;;;23.34;63.62;94852.58;1826408;78;20986;-69
2022/08/15 07:27:06;;;;;;;8.15;6.80;;;;;;;23.44;62.98;94858.08;1832192;78;21017;-69
2022/08/15 07:29:45;;;;;;;8.15;7.25;;;;;;;23.60;63.52;94850.45;1831840;78;21010;-69
2022/08/15 07:32:24;;;;;;;8.48;6.90;;;;;;;23.73;62.43;94848.48;1800995;78;20990;-69
2022/08/15 07:35:13;;;;;;;7.92;7.10;;;;;;;23.84;62.04;94855.69;1830535;78;21491;-69
2022/08/15 07:37:45;;;;;;;9.68;6.95;;;;;;;23.93;61.56;94851.37;1831889;78;21049;-69
2022/08/15 07:40:32;;;;;;;7.95;6.75;;;;;;;24.07;60.19;94852.92;1830691;78;21041;-69
2022/08/15 07:43:05;;;;;;;7.42;6.62;;;;;;;24.22;60.60;94850.75;1831712;78;21018;-69
2022/08/15 07:45:40;;;;;;;8.73;6.45;;;;;;;24.37;58.58;94848.98;1801065;78;21479;-69
2022/08/15 07:48:29;;;;;;;8.10;6.75;;;;;;;24.50;58.88;94849.32;1828907;78;21053;-69
2022/08/15 07:51:18;;;;;;;8.23;6.62;;;;;;;24.65;59.15;94851.20;1829331;78;21049;-69
2022/08/15 07:54:00;;;;;;;8.40;6.80;;;;;;;24.75;57.51;94855.66;1830913;78;21026;-69
2022/08/15 07:56:34;;;;;;;6.92;6.22;;;;;;;24.90;57.42;94855.32;1829408;78;21036;-69
2022/08/15 07:59:24;;;;;;;9.40;6.72;;;;;;;25.05;57.02;94857.53;1831857;78;21017;-69
2022/08/15 08:02:07;;;;;;;9.20;6.58;;;;;;;25.08;56.23;94857.75;1831470;78;21018;-69
2022/08/15 08:04:36;;;;;;;7.35;6.65;;;;;;;25.18;55.94;94855.98;1831455;78;21022;-69
2022/08/15 08:07:29;;;;;;;7.85;6.78;;;;;;;25.24;56.50;94854.08;1831881;78;21041;-69
2022/08/15 08:10:13;;;;;;;9.15;7.00;;;;;;;25.28;56.77;94857.38;1832255;78;20975;-69
2022/08/15 08:13:22;;;;;;;8.05;6.55;;;;;;;25.36;55.85;94858.05;1832043;78;21037;-69
2022/08/15 08:16:29;;;;;;;8.08;7.28;;;;;;;25.34;56.53;94865.42;1832237;78;21041;-69
2022/08/15 08:19:10;;;;;;;8.83;6.95;;;;;;;25.36;56.46;94868.34;1831936;78;21041;-69
2022/08/15 08:22:02;;;;;;;7.85;7.05;;;;;;;25.29;56.02;94872.58;1831903;78;21470;-69
2022/08/15 08:24:55;;;;;;;7.45;6.75;;;;;;;25.24;56.21;94875.67;1831864;78;21037;-69
2022/08/15 08:27:45;;;;;;;9.38;7.35;;;;;;;25.28;56.92;94877.63;1831384;78;21563;-69
2022/08/15 08:30:27;;;;;;;8.58;7.22;;;;;;;25.31;56.30;94876.50;1831480;78;21018;-69
2022/08/15 08:33:22;;;;;;;10.30;6.67;;;;;;;25.30;55.83;94881.05;1831832;78;21094;-69
2022/08/15 08:36:02;;;;;;;8.20;7.28;;;;;;;25.21;56.13;94880.50;1830985;78;20991;-69
2022/08/15 08:38:55;;;;;;;10.18;7.00;;;;;;;25.27;56.30;94878.59;1832047;78;21508;-69
2022/08/15 08:41:48;;;;;;;7.20;6.50;;;;;;;25.29;57.52;94875.27;1831705;78;21082;-69
2022/08/15 08:44:27;;;;;;;8.38;7.53;;;;;;;25.24;57.05;94874.83;1831799;78;21490;-69
2022/08/15 08:47:19;;;;;;;9.50;6.95;;;;;;;25.24;57.29;94872.13;1831936;78;21037;-69
2022/08/15 08:50:19;;;;;;;9.40;6.80;;;;;;;25.43;57.08;94873.56;1832106;78;21017;-69
2022/08/15 08:53:18;;;;;;;11.53;6.85;;;;;;;25.36;56.70;94876.95;1831883;78;21436;-69
2022/08/15 08:55:56;;;;;;;10.15;6.92;;;;;;;25.17;57.03;94878.55;1829927;78;20978;-69
2022/08/15 08:58:28;;;;;;;7.62;6.80;;;;;;;25.09;57.41;94881.05;1799241;78;21053;-69
2022/08/15 09:00:57;;;;;;;8.93;6.92;;;;;;;25.02;57.37;94887.49;1831718;78;21507;-69
2022/08/15 09:03:47;;;;;;;7.17;6.37;;;;;;;24.99;56.84;94880.98;1831869;78;21480;-69
2022/08/15 09:06:18;;;;;;;8.80;7.12;;;;;;;25.01;56.85;94871.42;1831908;78;21502;-69
2022/08/15 09:08:51;;;;;;;8.43;6.80;;;;;;;25.09;56.47;94872.95;1832076;78;21476;-69
2022/08/15 09:11:51;;;;;;;8.78;6.75;;;;;;;25.23;57.06;94869.08;1831715;78;21001;-69
2022/08/15 09:14:34;;;;;;;8.08;7.30;;;;;;;25.43;56.08;94868.67;1832179;78;21013;-69
2022/08/15 09:17:13;;;;;;;9.38;7.28;;;;;;;25.51;56.34;94870.18;1831920;78;21005;-69
2022/08/15 09:19:50;;;;;;;7.83;6.75;;;;;;;25.80;55.81;94867.54;1831765;78;21064;-69
2022/08/15 09:22:18;;;;;;;7.97;6.83;;;;;;;26.06;56.62;94863.02;1831843;78;20994;-69
2022/08/15 09:24:45;;;;;;;8.68;7.12;;;;;;;26.24;55.45;94866.72;1831784;78;21053;-69
2022/08/15 09:27:26;;;;;;;8.00;6.45;;;;;;;26.33;54.87;94863.17;1831696;78;21022;-69
2022/08/15 09:30:06;;;;;;;9.63;6.62;;;;;;;26.46;53.63;94862.01;1832000;78;21105;-69
2022/08/15 09:33:24;;;;;;;9.88;6.62;;;;;;;26.60;54.32;94861.61;1831986;78;21010;-69
2022/08/15 09:36:39;;;;;;;8.13;6.85;;;;;;;26.88;54.03;94865.27;1831719;78;21021;-69
2022/08/15 09:39:41;;;;;;;11.63;7.17;;;;;;;27.12;53.56;94862.08;1831883;78;20959;-69
2022/08/15 09:42:43;;;;;;;8.80;6.70;;;;;;;27.23;51.33;94863.78;1831939;78;21058;-69
2022/08/15 09:45:46;;;;;;;8.08;6.55;;;;;;;27.08;50.71;94870.64;1800820;78;21068;-69
2022/08/15 09:48:39;;;;;;;7.90;6.78;;;;;;;26.80;51.56;94875.12;1810829;78;21037;-69
2022/08/15 09:51:35;;;;;;;10.20;6.67;;;;;;;26.74;52.35;94876.06;1735383;83;21026;-68
2022/08/15 09:54:20;;;;;;;7.97;6.40;;;;;;;26.80;52.05;94875.12;1822092;78;21077;-69
2022/08/15 09:56:47;;;;;;;8.38;6.33;;;;;;;26.78;51.71;94870.34;1832284;78;21459;-69
2022/08/15 09:59:26;;;;;;;7.83;7.03;;;;;;;26.73;51.31;94865.36;1831962;78;21408;-69
2022/08/15 10:02:00;;;;;;;7.33;6.62;;;;;;;26.65;51.94;94866.59;1832277;78;20946;-69
2022/08/15 10:04:41;;;;;;;8.18;6.80;;;;;;;26.65;52.55;94867.44;1827778;78;20998;-69
2022/08/15 10:07:13;;;;;;;6.85;6.08;;;;;;;26.55;52.14;94864.74;1810500;78;20986;-69
2022/08/15 10:10:04;;;;;;;7.40;6.67;;;;;;;26.51;52.41;94863.78;1832238;78;21007;-69
2022/08/15 10:12:37;;;;;;;9.00;6.80;;;;;;;26.41;52.86;94863.81;1832102;78;21065;-69
2022/08/15 10:15:22;;;;;;;7.62;6.90;;;;;;;26.47;52.63;94861.88;1831342;78;21041;-69
2022/08/15 10:17:48;;;;;;;9.00;6.72;;;;;;;26.38;52.65;94864.08;1832139;78;21002;-69
2022/08/15 10:20:22;;;;;;;7.22;6.47;;;;;;;26.39;53.13;94862.25;1831786;78;21053;-69
2022/08/15 10:22:54;;;;;;;7.97;7.17;;;;;;;26.45;53.17;94862.52;1832043;78;20962;-71
2022/08/15 10:25:46;;;;;;;8.63;6.57;;;;;;;26.43;52.84;94859.09;1832128;78;21013;-71
2022/08/15 10:28:18;;;;;;;8.20;6.65;;;;;;;26.37;53.01;94865.59;1832189;78;21546;-71
2022/08/15 10:31:03;;;;;;;7.28;6.55;;;;;;;26.28;52.91;94865.45;1832307;78;21061;-71
2022/08/15 10:33:41;;;;;;;9.35;6.33;;;;;;;26.33;53.54;94859.59;1825825;78;21025;-71
2022/08/15 10:36:31;;;;;;;8.68;6.87;;;;;;;26.36;53.34;94868.80;1832141;78;21002;-69
2022/08/15 10:39:18;;;;;;;7.75;6.37;;;;;;;26.33;53.07;94859.13;1832168;78;20978;-69
2022/08/15 10:42:28;;;;;;;8.65;6.28;;;;;;;26.37;53.33;94862.38;1831685;78;21106;-68
2022/08/15 10:45:27;;;;;;;7.97;6.67;;;;;;;26.43;53.32;94865.00;1832132;78;21005;-68
2022/08/15 10:48:22;;;;;;;7.92;6.42;;;;;;;26.49;52.25;94860.39;1832097;78;21523;-68
2022/08/15 10:50:57;;;;;;;7.67;6.80;;;;;;;26.71;52.51;94860.59;1831856;78;21002;-69
2022/08/15 10:53:47;;;;;;;7.80;6.97;;;;;;;26.96;51.48;94851.88;1831176;78;21033;-68
2022/08/15 10:56:18;;;;;;;8.38;6.35;;;;;;;27.13;50.68;94848.03;1832071;78;21025;-69
2022/08/15 10:58:47;;;;;;;9.35;6.87;;;;;;;27.52;49.56;94858.25;1831954;78;21523;-69
2022/08/15 11:01:21;;;;;;;9.25;7.37;;;;;;;27.90;48.25;94841.45;1831949;78;21017;-69
2022/08/15 11:03:58;;;;;;;8.83;7.15;;;;;;;28.26;48.08;94843.68;1830780;78;21046;-69
2022/08/15 11:06:25;;;;;;;6.83;6.12;;;;;;;28.64;48.61;94838.95;1831981;78;20967;-68
2022/08/15 11:09:02;;;;;;;9.33;6.45;;;;;;;29.01;47.76;94830.24;1831878;78;21081;-69
2022/08/15 11:11:35;;;;;;;7.85;6.97;;;;;;;29.29;47.77;94834.51;1822990;78;20958;-69
2022/08/15 11:14:10;;;;;;;6.90;6.20;;;;;;;29.47;46.59;94829.50;1832018;78;21508;-69
2022/08/15 11:16:41;;;;;;;9.88;6.37;;;;;;;29.19;45.21;94831.05;1832122;78;20958;-69
2022/08/15 11:19:21;;;;;;;10.08;6.58;;;;;;;28.93;47.26;94832.40;1832279;78;21455;-69
2022/08/15 11:21:55;;;;;;;8.03;6.53;;;;;;;28.64;47.22;94837.59;1831384;78;21092;-68
2022/08/15 11:24:38;;;;;;;8.03;6.62;;;;;;;28.34;47.76;94836.62;1831884;78;21518;-69
2022/08/15 11:27:16;;;;;;;7.20;6.50;;;;;;;28.20;47.72;94834.81;1831984;78;21001;-69
2022/08/15 11:29:46;;;;;;;7.05;6.35;;;;;;;28.04;48.21;94832.77;1830413;78;21006;-69
2022/08/15 11:32:32;;;;;;;7.95;6.20;;;;;;;27.97;48.26;94831.70;1832050;78;21018;-68
2022/08/15 11:35:02;;;;;;;8.70;6.70;;;;;;;28.12;48.85;94824.38;1831969;78;20990;-69
2022/08/15 11:37:34;;;;;;;7.40;6.50;;;;;;;28.45;47.89;94829.14;1831665;78;21045;-68
2022/08/15 11:40:09;;;;;;;8.73;7.37;;;;;;;28.67;47.39;94826.42;1831724;78;21001;-69
2022/08/15 11:42:39;;;;;;;7.25;6.55;;;;;;;28.87;46.83;94825.72;1826262;78;21018;-69
2022/08/15 11:45:17;;;;;;;7.10;6.37;;;;;;;29.06;45.48;94823.86;1832092;78;20998;-69
2022/08/15 11:47:48;;;;;;;9.75;5.87;;;;;;;29.19;45.25;94813.39;1831791;78;21041;-69
2022/08/15 11:50:26;;;;;;;10.10;6.55;;;;;;;29.22;46.18;94814.42;1831962;78;21002;-69
2022/08/15 11:53:01;;;;;;;7.40;6.67;;;;;;;29.06;45.72;94815.70;1832187;78;21001;-69
2022/08/15 11:55:39;;;;;;;7.90;6.35;;;;;;;28.87;44.68;94814.01;1831793;78;21109;-69
2022/08/15 11:58:14;;;;;;;7.95;6.58;;;;;;;28.68;44.45;94815.08;1832117;78;21005;-69
2022/08/15 12:00:46;;;;;;;7.30;6.53;;;;;;;28.54;44.72;94811.56;1831058;78;21041;-69
2022/08/15 12:03:23;;;;;;;6.95;6.20;;;;;;;28.46;45.32;94813.20;1832723;78;21013;-69
2022/08/15 12:05:55;;;;;;;8.58;6.03;;;;;;;28.38;45.88;94810.91;1831569;78;21016;-69
2022/08/15 12:08:29;;;;;;;8.23;6.95;;;;;;;28.30;44.93;94817.11;1832057;78;21058;-69
2022/08/15 12:11:16;;;;;;;8.48;6.45;;;;;;;28.13;46.40;94807.11;1831941;78;21026;-68
2022/08/15 12:14:13;;;;;;;8.25;6.60;;;;;;;28.15;46.31;94804.59;1832144;78;21001;-68